createdAt,value
2023-05-11T00:00:45.413Z,11.70
2023-05-11T00:03:14.904Z,11.70
2023-05-11T00:05:43.227Z,11.60
2023-05-11T00:08:11.298Z,11.60
2023-05-11T00:10:39.398Z,11.60
2023-05-11T00:13:07.456Z,11.60
2023-05-11T00:15:35.641Z,11.60
2023-05-11T00:18:03.815Z,11.60
2023-05-11T00:20:33.258Z,11.50
2023-05-11T00:23:01.451Z,11.50
2023-05-11T00:25:29.593Z,11.50
2023-05-11T00:27:57.781Z,11.50
2023-05-11T00:30:25.831Z,11.60
2023-05-11T00:32:53.894Z,11.60
2023-05-11T00:35:22.169Z,11.60
2023-05-11T00:37:51.658Z,11.60
2023-05-11T00:40:19.987Z,11.60
2023-05-11T00:42:48.366Z,11.60
2023-05-11T00:45:16.500Z,11.60
2023-05-11T00:47:45.040Z,11.60
2023-05-11T00:50:13.515Z,11.50
2023-05-11T00:52:42.971Z,11.60
2023-05-11T00:55:14.688Z,11.70
2023-05-11T00:57:43.022Z,11.70
2023-05-11T01:00:12.174Z,11.70
2023-05-11T01:02:40.782Z,11.60
2023-05-11T01:05:09.880Z,11.50
2023-05-11T01:07:45.456Z,11.50
2023-05-11T01:10:22.445Z,11.60
2023-05-11T01:12:59.936Z,11.60
2023-05-11T01:15:37.032Z,11.60
2023-05-11T01:18:16.079Z,11.50
2023-05-11T01:20:47.934Z,11.50
2023-05-11T01:23:51.914Z,11.50
2023-05-11T01:26:45.491Z,11.50
2023-05-11T01:29:42.221Z,11.70
2023-05-11T01:32:18.087Z,11.60
2023-05-11T01:34:47.254Z,11.60
2023-05-11T01:37:21.614Z,11.60
2023-05-11T01:39:56.214Z,11.70
2023-05-11T01:42:29.811Z,11.70
2023-05-11T01:44:58.282Z,11.70
2023-05-11T01:47:31.172Z,11.70
2023-05-11T01:50:01.743Z,11.60
2023-05-11T01:52:32.069Z,11.50
2023-05-11T01:55:02.600Z,11.50
2023-05-11T01:57:32.154Z,11.40
2023-05-11T02:00:01.568Z,11.40
2023-05-11T02:02:32.540Z,11.60
2023-05-11T02:05:01.858Z,11.60
2023-05-11T02:07:31.166Z,11.60
2023-05-11T02:10:00.578Z,11.60
2023-05-11T02:12:29.573Z,11.60
2023-05-11T02:14:59.460Z,11.60
2023-05-11T02:17:28.895Z,11.60
2023-05-11T02:19:59.982Z,11.60
2023-05-11T02:22:29.145Z,11.60
2023-05-11T02:24:57.407Z,11.60
2023-05-11T02:27:26.004Z,11.70
2023-05-11T02:29:54.038Z,11.70
2023-05-11T02:32:23.645Z,11.80
2023-05-11T02:34:59.843Z,11.80
2023-05-11T02:37:31.096Z,11.70
2023-05-11T02:40:03.530Z,11.60
2023-05-11T02:42:35.733Z,11.60
2023-05-11T02:45:07.267Z,11.60
2023-05-11T02:47:43.536Z,11.60
2023-05-11T02:50:12.657Z,11.70
2023-05-11T02:52:46.720Z,11.60
2023-05-11T02:55:17.450Z,11.60
2023-05-11T02:57:45.783Z,11.60
2023-05-11T03:00:14.582Z,11.60
2023-05-11T03:02:42.614Z,11.60
2023-05-11T03:05:10.935Z,11.50
2023-05-11T03:07:39.300Z,11.50
2023-05-11T03:10:10.479Z,11.60
2023-05-11T03:12:39.377Z,11.60
2023-05-11T03:15:12.045Z,11.60
2023-05-11T03:17:41.553Z,11.60
2023-05-11T03:20:11.134Z,11.60
2023-05-11T03:22:39.358Z,11.60
2023-05-11T03:25:09.762Z,11.60
2023-05-11T03:27:38.541Z,11.70
2023-05-11T03:30:10.694Z,11.80
2023-05-11T03:32:38.625Z,11.80
2023-05-11T03:35:07.809Z,11.90
2023-05-11T03:37:38.451Z,11.80
2023-05-11T03:40:10.186Z,11.80
2023-05-11T03:42:39.544Z,11.70
2023-05-11T03:45:09.303Z,11.70
2023-05-11T03:47:39.355Z,11.70
2023-05-11T03:50:10.037Z,11.70
2023-05-11T03:52:38.683Z,11.70
2023-05-11T03:55:07.733Z,11.60
2023-05-11T03:57:37.308Z,11.60
2023-05-11T04:00:06.502Z,11.60
2023-05-11T04:02:35.650Z,11.40
2023-05-11T04:05:08.582Z,11.40
2023-05-11T04:07:38.295Z,11.40
2023-05-11T04:10:07.357Z,11.40
2023-05-11T04:12:36.599Z,11.40
2023-05-11T04:15:05.478Z,11.40
2023-05-11T04:17:33.448Z,11.50
2023-05-11T04:20:01.352Z,11.50
2023-05-11T04:22:29.249Z,11.40
2023-05-11T04:24:57.254Z,11.40
2023-05-11T04:27:25.236Z,11.60
2023-05-11T04:29:54.540Z,11.60
2023-05-11T04:32:22.559Z,11.60
2023-05-11T04:34:51.009Z,11.60
2023-05-11T04:37:18.942Z,11.70
2023-05-11T04:39:46.854Z,11.70
2023-05-11T04:42:15.012Z,11.60
2023-05-11T04:44:42.914Z,11.70
2023-05-11T04:47:12.252Z,11.50
2023-05-11T04:49:40.534Z,11.60
2023-05-11T04:52:08.497Z,11.60
2023-05-11T04:54:36.867Z,11.60
2023-05-11T04:57:04.833Z,11.70
2023-05-11T04:59:33.574Z,11.60
2023-05-11T05:02:01.590Z,11.70
2023-05-11T05:04:30.988Z,11.70
2023-05-11T05:06:58.961Z,11.70
2023-05-11T05:09:26.889Z,11.70
2023-05-11T05:11:54.819Z,11.70
2023-05-11T05:14:22.725Z,11.70
2023-05-11T05:16:50.734Z,11.80
2023-05-11T05:19:18.679Z,11.80
2023-05-11T05:21:48.240Z,11.70
2023-05-11T05:24:16.178Z,11.80
2023-05-11T05:26:44.727Z,11.90
2023-05-11T05:29:12.696Z,11.90
2023-05-11T05:31:40.623Z,11.90
2023-05-11T05:34:08.615Z,11.90
2023-05-11T05:36:36.561Z,11.80
2023-05-11T05:39:09.817Z,11.80
2023-05-11T05:41:37.936Z,11.70
2023-05-11T05:44:06.202Z,11.80
2023-05-11T05:46:34.237Z,11.90
2023-05-11T05:49:02.305Z,12.10
2023-05-11T05:51:30.229Z,12.00
2023-05-11T05:53:58.206Z,12.10
2023-05-11T05:56:27.618Z,12.10
2023-05-11T05:58:55.868Z,12.10
2023-05-11T06:01:23.883Z,12.20
2023-05-11T06:03:52.276Z,12.30
2023-05-11T06:06:20.716Z,12.30
2023-05-11T06:08:48.682Z,12.30
2023-05-11T06:11:16.973Z,12.20
2023-05-11T06:13:46.387Z,12.30
2023-05-11T06:16:14.355Z,12.20
2023-05-11T06:18:42.529Z,12.30
2023-05-11T06:21:10.498Z,12.20
2023-05-11T06:23:38.534Z,12.20
2023-05-11T06:26:06.563Z,12.20
2023-05-11T06:28:34.617Z,12.30
2023-05-11T06:31:04.732Z,12.30
2023-05-11T06:33:32.953Z,12.40
2023-05-11T06:36:05.485Z,12.50
2023-05-11T06:38:33.527Z,12.50
2023-05-11T06:41:01.503Z,12.50
2023-05-11T06:43:29.565Z,12.50
2023-05-11T06:45:57.568Z,12.40
2023-05-11T06:48:29.947Z,12.50
2023-05-11T06:50:58.073Z,12.50
2023-05-11T06:53:26.232Z,12.50
2023-05-11T06:55:55.765Z,12.50
2023-05-11T06:58:23.731Z,12.60
2023-05-11T07:00:51.715Z,12.50
2023-05-11T07:03:19.676Z,12.50
2023-05-11T07:05:49.550Z,12.60
2023-05-11T07:08:17.500Z,12.70
2023-05-11T07:10:45.474Z,12.80
2023-05-11T07:13:14.167Z,12.80
2023-05-11T07:15:42.208Z,12.80
2023-05-11T07:18:10.170Z,12.80
2023-05-11T07:20:40.043Z,12.90
2023-05-11T07:23:09.389Z,12.80
2023-05-11T07:25:37.478Z,12.90
2023-05-11T07:28:05.806Z,12.90
2023-05-11T07:30:33.842Z,12.90
2023-05-11T07:33:02.599Z,12.90
2023-05-11T07:35:30.875Z,12.80
2023-05-11T07:37:58.881Z,12.70
2023-05-11T07:40:28.302Z,12.70
2023-05-11T07:42:56.440Z,12.70
2023-05-11T07:45:24.431Z,12.60
2023-05-11T07:47:52.849Z,12.70
2023-05-11T07:50:23.907Z,12.70
2023-05-11T07:52:52.536Z,12.70
2023-05-11T07:55:24.879Z,12.80
2023-05-11T07:57:55.640Z,12.80
2023-05-11T08:00:23.900Z,12.90
2023-05-11T08:02:52.843Z,12.90
2023-05-11T08:05:21.732Z,13.00
2023-05-11T08:07:49.848Z,13.00
2023-05-11T08:10:17.874Z,12.90
2023-05-11T08:12:45.805Z,12.90
2023-05-11T08:15:15.100Z,12.90
2023-05-11T08:17:43.388Z,12.80
2023-05-11T08:20:12.172Z,12.90
2023-05-11T08:22:40.186Z,12.90
2023-05-11T08:25:09.433Z,13.00
2023-05-11T08:27:37.325Z,13.10
2023-05-11T08:30:06.037Z,13.10
2023-05-11T08:32:46.604Z,13.10
2023-05-11T08:35:24.629Z,13.10
2023-05-11T08:37:52.744Z,13.30
2023-05-11T08:40:23.253Z,13.40
2023-05-11T08:42:56.413Z,13.30
2023-05-11T08:45:25.067Z,13.40
2023-05-11T08:47:54.690Z,13.50
2023-05-11T08:50:23.712Z,13.30
2023-05-11T08:52:51.804Z,13.20
2023-05-11T08:55:20.655Z,13.40
2023-05-11T08:57:49.003Z,13.60
2023-05-11T09:00:18.183Z,13.60
2023-05-11T09:02:47.391Z,13.70
2023-05-11T09:05:17.504Z,13.70
2023-05-11T09:07:48.438Z,13.70
2023-05-11T09:10:16.600Z,13.60
2023-05-11T09:12:44.547Z,13.70
2023-05-11T09:15:13.025Z,13.60
2023-05-11T09:17:41.003Z,13.60
2023-05-11T09:20:10.184Z,13.60
2023-05-11T09:22:45.303Z,13.60
2023-05-11T09:25:14.979Z,13.80
2023-05-11T09:27:43.763Z,13.80
2023-05-11T09:30:13.731Z,13.80
2023-05-11T09:32:52.729Z,13.90
2023-05-11T09:35:23.024Z,13.90
2023-05-11T09:38:07.873Z,13.90
2023-05-11T09:40:37.320Z,14.00
2023-05-11T09:43:16.441Z,13.90
2023-05-11T09:45:45.756Z,13.90
2023-05-11T09:48:27.332Z,13.90
2023-05-11T09:51:01.373Z,14.10
2023-05-11T09:53:38.655Z,14.00
2023-05-11T09:56:07.195Z,14.00
2023-05-11T09:58:49.840Z,14.00
2023-05-11T10:01:18.819Z,14.00
2023-05-11T10:03:48.847Z,14.00
2023-05-11T10:06:20.055Z,14.20
2023-05-11T10:08:50.492Z,14.20
2023-05-11T10:11:18.985Z,14.20
2023-05-11T10:13:47.146Z,14.10
2023-05-11T10:16:17.414Z,14.30
2023-05-11T10:18:46.861Z,14.20
2023-05-11T10:21:16.664Z,14.20
2023-05-11T10:23:44.983Z,14.20
2023-05-11T10:26:15.224Z,14.10
2023-05-11T10:28:43.723Z,14.10
2023-05-11T10:31:14.236Z,14.10
2023-05-11T10:33:43.739Z,14.10
2023-05-11T10:38:46.712Z,14.10
2023-05-11T10:41:26.783Z,13.90
2023-05-11T10:44:23.110Z,14.00
2023-05-11T10:47:08.272Z,13.80
2023-05-11T10:50:03.689Z,13.90
2023-05-11T10:53:04.860Z,13.70
2023-05-11T10:55:46.975Z,13.50
2023-05-11T10:58:24.142Z,13.50
2023-05-11T11:01:36.858Z,13.50
2023-05-11T11:04:07.370Z,13.50
2023-05-11T11:06:36.930Z,13.50
2023-05-11T11:09:08.075Z,13.40
2023-05-11T11:11:39.259Z,13.40
2023-05-11T11:14:10.232Z,13.60
2023-05-11T11:16:38.909Z,13.60
2023-05-11T11:19:39.552Z,13.70
2023-05-11T11:22:27.783Z,13.80
2023-05-11T11:24:55.805Z,14.00
2023-05-11T11:27:58.301Z,14.20
2023-05-11T11:30:30.512Z,14.30
2023-05-11T11:33:33.223Z,14.30
2023-05-11T11:36:01.662Z,14.30
2023-05-11T11:38:30.658Z,14.30
2023-05-11T11:40:58.787Z,14.20
2023-05-11T11:43:28.418Z,14.30
2023-05-11T11:45:59.537Z,14.30
2023-05-11T11:48:33.542Z,14.30
2023-05-11T11:51:06.692Z,14.30
2023-05-11T11:54:00.830Z,14.40
2023-05-11T11:56:42.360Z,14.50
2023-05-11T11:59:13.920Z,14.50
2023-05-11T12:01:45.486Z,14.70
2023-05-11T12:04:52.916Z,14.90
2023-05-11T12:07:22.610Z,14.80
2023-05-11T12:09:52.855Z,14.80
2023-05-11T12:12:21.660Z,14.80
2023-05-11T12:14:52.724Z,14.80
2023-05-11T12:17:30.866Z,14.90
2023-05-11T12:20:13.755Z,14.90
2023-05-11T12:22:42.078Z,14.90
2023-05-11T12:25:11.710Z,15.00
2023-05-11T12:27:49.185Z,15.10
2023-05-11T12:30:24.912Z,15.00
2023-05-11T12:32:57.756Z,15.10
2023-05-11T12:35:26.928Z,15.10
2023-05-11T12:37:55.908Z,15.20
2023-05-11T12:40:24.092Z,15.20
2023-05-11T12:42:52.499Z,15.20
2023-05-11T12:45:21.137Z,15.30
2023-05-11T12:47:49.616Z,15.30
2023-05-11T12:50:19.970Z,15.20
2023-05-11T12:52:49.260Z,15.20
2023-05-11T12:55:28.358Z,15.30
2023-05-11T12:58:09.009Z,15.00
2023-05-11T13:00:37.179Z,15.00
2023-05-11T13:03:05.331Z,15.00
2023-05-11T13:05:35.153Z,15.10
2023-05-11T13:08:06.599Z,15.20
2023-05-11T13:10:34.622Z,15.30
2023-05-11T13:13:02.549Z,15.30
2023-05-11T13:15:30.948Z,15.30
2023-05-11T13:18:00.543Z,15.30
2023-05-11T13:20:30.103Z,15.50
2023-05-11T13:23:07.786Z,15.70
2023-05-11T13:25:51.546Z,16.20
2023-05-11T13:28:22.010Z,16.20
2023-05-11T13:30:51.209Z,16.30
2023-05-11T13:33:19.752Z,16.50
2023-05-11T13:35:47.749Z,16.50
2023-05-11T13:38:17.009Z,16.60
2023-05-11T13:40:45.756Z,16.50
2023-05-11T13:43:13.792Z,16.50
2023-05-11T13:45:41.883Z,16.30
2023-05-11T13:48:10.836Z,16.30
2023-05-11T13:50:38.960Z,16.30
2023-05-11T13:53:06.930Z,16.10
2023-05-11T13:55:38.030Z,15.80
2023-05-11T13:58:06.164Z,15.70
2023-05-11T14:00:34.897Z,15.80
2023-05-11T14:03:03.983Z,16.00
2023-05-11T14:05:32.473Z,16.20
2023-05-11T14:08:00.534Z,16.20
2023-05-11T14:10:28.519Z,16.30
2023-05-11T14:12:57.821Z,16.40
2023-05-11T14:15:25.900Z,16.40
2023-05-11T14:17:53.808Z,16.40
2023-05-11T14:20:21.913Z,16.30
2023-05-11T14:22:49.928Z,16.10
2023-05-11T14:25:18.162Z,16.00
2023-05-11T14:27:46.372Z,15.90
2023-05-11T14:30:16.019Z,15.80
2023-05-11T14:32:43.939Z,15.70
2023-05-11T14:35:11.897Z,15.70
2023-05-11T14:37:39.862Z,15.70
2023-05-11T14:40:08.942Z,15.70
2023-05-11T14:42:36.897Z,15.60
2023-05-11T14:45:05.450Z,15.50
2023-05-11T14:47:34.810Z,15.60
2023-05-11T14:50:02.826Z,15.60
2023-05-11T14:52:30.785Z,15.70
2023-05-11T14:54:58.729Z,15.80
2023-05-11T14:57:26.785Z,15.60
2023-05-11T14:59:59.939Z,15.80
2023-05-11T15:02:31.002Z,15.90
2023-05-11T15:05:00.412Z,16.10
2023-05-11T15:07:28.421Z,16.10
2023-05-11T15:09:56.410Z,16.20
2023-05-11T15:12:25.170Z,16.20
2023-05-11T15:14:53.106Z,16.20
2023-05-11T15:17:21.251Z,16.10
2023-05-11T15:19:49.193Z,16.20
2023-05-11T15:22:19.207Z,16.20
2023-05-11T15:24:47.313Z,16.30
2023-05-11T15:27:15.328Z,16.30
2023-05-11T15:29:43.338Z,16.30
2023-05-11T15:32:15.099Z,16.20
2023-05-11T15:34:57.822Z,16.20
2023-05-11T15:37:28.850Z,16.20
2023-05-11T15:39:58.250Z,16.20
2023-05-11T15:42:26.944Z,16.20
2023-05-11T15:44:56.546Z,16.10
2023-05-11T15:47:24.987Z,16.10
2023-05-11T15:49:53.115Z,16.20
2023-05-11T15:52:21.539Z,16.20
2023-05-11T15:54:50.971Z,16.10
2023-05-11T15:57:18.892Z,16.00
2023-05-11T15:59:47.688Z,15.90
2023-05-11T16:02:15.613Z,15.90
2023-05-11T16:04:44.003Z,15.90
2023-05-11T16:07:12.079Z,15.90
2023-05-11T16:09:40.081Z,15.80
2023-05-11T16:12:10.168Z,15.80
2023-05-11T16:14:38.587Z,15.70
2023-05-11T16:17:07.053Z,15.80
2023-05-11T16:19:35.072Z,15.70
2023-05-11T16:22:03.102Z,15.70
2023-05-11T16:24:34.328Z,15.60
2023-05-11T16:27:02.743Z,15.60
2023-05-11T16:29:32.102Z,15.60
2023-05-11T16:32:00.235Z,15.70
2023-05-11T16:34:28.504Z,15.80
2023-05-11T16:36:58.795Z,15.80
2023-05-11T16:39:27.267Z,15.90
2023-05-11T16:41:55.191Z,15.80
2023-05-11T16:44:24.606Z,15.80
2023-05-11T16:46:54.059Z,15.80
2023-05-11T16:49:22.117Z,15.80
2023-05-11T16:51:50.103Z,15.90
2023-05-11T16:54:18.070Z,15.90
2023-05-11T16:56:46.218Z,15.80
2023-05-11T16:59:14.621Z,15.80
2023-05-11T17:01:42.685Z,15.80
2023-05-11T17:04:12.750Z,15.70
2023-05-11T17:06:41.054Z,15.70
2023-05-11T17:09:10.204Z,15.70
2023-05-11T17:11:38.452Z,15.70
2023-05-11T17:14:07.423Z,15.70
2023-05-11T17:16:35.428Z,15.70
2023-05-11T17:19:03.507Z,15.70
2023-05-11T17:21:32.873Z,15.60
2023-05-11T17:24:00.859Z,15.60
2023-05-11T17:26:43.433Z,15.60
2023-05-11T17:29:14.849Z,15.50
2023-05-11T17:31:42.985Z,15.30
2023-05-11T17:34:11.388Z,15.20
2023-05-11T17:36:40.944Z,15.20
2023-05-11T17:39:09.814Z,15.20
2023-05-11T17:41:37.840Z,15.20
2023-05-11T17:44:06.160Z,15.00
2023-05-11T17:46:34.714Z,14.90
2023-05-11T17:49:03.052Z,14.90
2023-05-11T17:51:31.259Z,14.70
2023-05-11T17:54:00.825Z,14.70
2023-05-11T17:56:28.815Z,14.80
2023-05-11T17:58:56.816Z,14.70
2023-05-11T18:01:25.278Z,14.60
2023-05-11T18:03:53.391Z,14.60
2023-05-11T18:06:21.637Z,14.60
2023-05-11T18:08:50.376Z,14.70
2023-05-11T18:11:19.909Z,14.70
2023-05-11T18:13:48.128Z,14.50
2023-05-11T18:16:16.083Z,14.40
2023-05-11T18:18:46.088Z,14.30
2023-05-11T18:21:14.109Z,14.20
2023-05-11T18:23:42.434Z,14.10
2023-05-11T18:26:11.402Z,14.10
2023-05-11T18:28:41.003Z,14.00
2023-05-11T18:31:09.361Z,13.80
2023-05-11T18:33:37.303Z,13.90
2023-05-11T18:36:06.016Z,13.90
2023-05-11T18:38:34.180Z,14.00
2023-05-11T18:41:05.266Z,13.90
2023-05-11T18:43:34.213Z,13.80
2023-05-11T18:46:08.590Z,13.70
2023-05-11T18:48:36.880Z,13.70
2023-05-11T18:51:05.245Z,13.60
2023-05-11T18:53:33.501Z,13.60
2023-05-11T18:56:01.408Z,13.60
2023-05-11T18:58:29.515Z,13.50
2023-05-11T19:00:57.617Z,13.40
2023-05-11T19:03:27.084Z,13.30
2023-05-11T19:05:55.064Z,13.30
2023-05-11T19:08:23.033Z,13.30
2023-05-11T19:10:51.122Z,13.20
2023-05-11T19:13:19.319Z,13.30
2023-05-11T19:15:47.357Z,13.20
2023-05-11T19:18:15.715Z,13.20
2023-05-11T19:20:45.044Z,13.10
2023-05-11T19:23:13.232Z,13.10
2023-05-11T19:25:41.408Z,13.00
2023-05-11T19:28:09.444Z,13.00
2023-05-11T19:30:37.549Z,13.00
2023-05-11T19:33:05.663Z,12.70
2023-05-11T19:35:33.632Z,12.90
2023-05-11T19:38:06.093Z,12.80
2023-05-11T19:43:07.080Z,12.70
2023-05-11T19:45:35.307Z,12.70
2023-05-11T19:48:03.444Z,12.70
2023-05-11T19:50:31.516Z,12.60
2023-05-11T19:52:59.478Z,12.60
2023-05-11T19:55:28.798Z,12.60
2023-05-11T19:57:56.847Z,12.60
2023-05-11T20:00:26.140Z,12.60
2023-05-11T20:02:55.056Z,12.60
2023-05-11T20:05:23.481Z,12.60
2023-05-11T20:07:51.413Z,12.50
2023-05-11T20:10:19.457Z,12.40
2023-05-11T20:12:49.160Z,12.40
2023-05-11T20:15:17.173Z,12.40
2023-05-11T20:17:45.298Z,12.30
2023-05-11T20:20:13.605Z,12.40
2023-05-11T20:22:41.610Z,12.40
2023-05-11T20:25:17.069Z,12.40
2023-05-11T20:27:46.264Z,12.40
2023-05-11T20:30:16.569Z,12.30
2023-05-11T20:35:15.738Z,12.40
2023-05-11T20:37:43.727Z,12.30
2023-05-11T20:40:12.761Z,12.30
2023-05-11T20:42:40.747Z,12.20
2023-05-11T20:45:09.844Z,12.40
2023-05-11T20:47:39.198Z,12.40
2023-05-11T20:50:09.268Z,12.30
2023-05-11T20:52:37.421Z,12.30
2023-05-11T20:55:06.035Z,12.20
2023-05-11T20:57:34.322Z,12.10
2023-05-11T21:00:04.213Z,12.00
2023-05-11T21:02:32.804Z,11.90
2023-05-11T21:05:02.830Z,11.80
2023-05-11T21:07:33.905Z,11.60
2023-05-11T21:10:02.710Z,11.50
2023-05-11T21:12:30.820Z,11.50
2023-05-11T21:14:58.834Z,11.60
2023-05-11T21:17:26.829Z,11.60
2023-05-11T21:19:54.834Z,11.60
2023-05-11T21:22:24.106Z,11.50
2023-05-11T21:24:52.110Z,11.50
2023-05-11T21:27:20.246Z,11.50
2023-05-11T21:29:48.327Z,11.40
2023-05-11T21:32:16.341Z,11.40
2023-05-11T21:34:44.381Z,11.60
2023-05-11T21:37:14.495Z,11.30
2023-05-11T21:39:43.944Z,11.30
2023-05-11T21:42:11.902Z,11.10
2023-05-11T21:44:39.831Z,11.10
2023-05-11T21:47:07.867Z,11.10
2023-05-11T21:49:36.707Z,11.10
2023-05-11T21:52:05.830Z,11.00
2023-05-11T21:54:33.807Z,11.00
2023-05-11T21:57:03.701Z,11.00
2023-05-11T21:59:31.633Z,11.00
2023-05-11T22:01:59.639Z,11.00
2023-05-11T22:04:27.952Z,11.10
2023-05-11T22:06:59.480Z,11.10
2023-05-11T22:09:29.017Z,11.00
2023-05-11T22:11:57.379Z,11.00
2023-05-11T22:14:26.716Z,11.10
2023-05-11T22:16:54.620Z,11.00
2023-05-11T22:19:22.531Z,11.10
2023-05-11T22:21:50.557Z,11.00
2023-05-11T22:24:18.467Z,10.90
2023-05-11T22:26:46.621Z,10.90
2023-05-11T22:29:15.032Z,10.90
2023-05-11T22:31:46.033Z,11.00
2023-05-11T22:34:14.576Z,10.90
2023-05-11T22:36:42.609Z,10.80
2023-05-11T22:39:11.339Z,10.70
2023-05-11T22:41:40.086Z,10.80
2023-05-11T22:44:08.063Z,10.70
2023-05-11T22:46:35.999Z,10.60
2023-05-11T22:49:05.305Z,10.60
2023-05-11T22:51:33.251Z,10.60
2023-05-11T22:54:01.241Z,10.70
2023-05-11T22:56:30.599Z,10.70
2023-05-11T22:58:59.910Z,10.80
2023-05-11T23:01:28.184Z,10.80
2023-05-11T23:03:56.142Z,10.80
2023-05-11T23:06:25.552Z,10.80
2023-05-11T23:08:53.731Z,10.80
2023-05-11T23:11:21.669Z,10.70
2023-05-11T23:13:49.589Z,10.70
2023-05-11T23:16:17.866Z,10.60
2023-05-11T23:18:45.936Z,10.70
2023-05-11T23:21:14.004Z,10.70
2023-05-11T23:23:43.496Z,10.60
2023-05-11T23:26:11.454Z,10.60
2023-05-11T23:28:39.596Z,10.60
2023-05-11T23:31:07.522Z,10.60
2023-05-11T23:33:35.466Z,10.60
2023-05-11T23:36:03.364Z,10.60
2023-05-11T23:38:31.354Z,10.50
2023-05-11T23:41:00.632Z,10.50
2023-05-11T23:43:28.870Z,10.50
2023-05-11T23:45:57.793Z,10.50
2023-05-11T23:48:26.189Z,10.40
2023-05-11T23:50:54.104Z,10.40
2023-05-11T23:53:22.018Z,10.40
2023-05-11T23:55:50.006Z,10.40
2023-05-11T23:58:19.267Z,10.40
